sensor_id;sensor_type;location;lat;lon;timestamp;P1;durP1;ratioP1;P2;durP2;ratioP2
16669;SDS011;8448;52.034;5.158;2022-09-02T00:00:35;1.75;;;1.17;;
16669;SDS011;8448;52.034;5.158;2022-09-02T00:03:07;2.47;;;1.30;;
16669;SDS011;8448;52.034;5.158;2022-09-02T00:05:34;2.10;;;1.30;;
16669;SDS011;8448;52.034;5.158;2022-09-02T00:08:02;4.75;;;1.38;;
16669;SDS011;8448;52.034;5.158;2022-09-02T00:10:30;2.58;;;1.20;;
16669;SDS011;8448;52.034;5.158;2022-09-02T00:12:57;1.52;;;1.38;;
16669;SDS011;8448;52.034;5.158;2022-09-02T00:15:25;1.15;;;1.00;;
16669;SDS011;8448;52.034;5.158;2022-09-02T00:17:52;1.55;;;1.10;;
16669;SDS011;8448;52.034;5.158;2022-09-02T00:20:21;2.08;;;1.23;;
16669;SDS011;8448;52.034;5.158;2022-09-02T00:22:48;1.67;;;1.10;;
16669;SDS011;8448;52.034;5.158;2022-09-02T00:25:16;2.47;;;1.20;;
16669;SDS011;8448;52.034;5.158;2022-09-02T00:27:43;2.90;;;0.98;;
16669;SDS011;8448;52.034;5.158;2022-09-02T00:30:11;1.23;;;1.10;;
16669;SDS011;8448;52.034;5.158;2022-09-02T00:32:39;1.52;;;1.20;;
16669;SDS011;8448;52.034;5.158;2022-09-02T00:35:07;1.95;;;0.98;;
16669;SDS011;8448;52.034;5.158;2022-09-02T00:37:36;3.63;;;1.00;;
16669;SDS011;8448;52.034;5.158;2022-09-02T00:40:04;2.10;;;1.13;;
16669;SDS011;8448;52.034;5.158;2022-09-02T00:42:33;2.22;;;1.10;;
16669;SDS011;8448;52.034;5.158;2022-09-02T00:45:01;3.05;;;1.20;;
16669;SDS011;8448;52.034;5.158;2022-09-02T00:47:31;1.20;;;1.10;;
16669;SDS011;8448;52.034;5.158;2022-09-02T00:49:59;1.42;;;1.00;;
16669;SDS011;8448;52.034;5.158;2022-09-02T00:52:28;2.35;;;1.38;;
16669;SDS011;8448;52.034;5.158;2022-09-02T00:55:07;1.50;;;1.10;;
16669;SDS011;8448;52.034;5.158;2022-09-02T00:57:40;1.20;;;1.10;;
16669;SDS011;8448;52.034;5.158;2022-09-02T01:00:10;3.00;;;1.10;;
16669;SDS011;8448;52.034;5.158;2022-09-02T01:02:41;1.98;;;1.20;;
16669;SDS011;8448;52.034;5.158;2022-09-02T01:05:10;2.83;;;1.17;;
16669;SDS011;8448;52.034;5.158;2022-09-02T01:07:39;1.83;;;1.13;;
16669;SDS011;8448;52.034;5.158;2022-09-02T01:10:09;3.70;;;1.38;;
16669;SDS011;8448;52.034;5.158;2022-09-02T01:12:38;1.50;;;1.38;;
16669;SDS011;8448;52.034;5.158;2022-09-02T01:15:08;2.30;;;1.10;;
16669;SDS011;8448;52.034;5.158;2022-09-02T01:17:36;1.70;;;1.10;;
16669;SDS011;8448;52.034;5.158;2022-09-02T01:20:08;2.03;;;1.20;;
16669;SDS011;8448;52.034;5.158;2022-09-02T01:22:41;1.48;;;1.20;;
16669;SDS011;8448;52.034;5.158;2022-09-02T01:25:10;3.92;;;1.13;;
16669;SDS011;8448;52.034;5.158;2022-09-02T01:27:40;4.15;;;1.20;;
16669;SDS011;8448;52.034;5.158;2022-09-02T01:30:11;2.30;;;1.27;;
16669;SDS011;8448;52.034;5.158;2022-09-02T01:32:40;3.22;;;1.10;;
16669;SDS011;8448;52.034;5.158;2022-09-02T01:35:08;1.98;;;1.00;;
16669;SDS011;8448;52.034;5.158;2022-09-02T01:37:37;1.45;;;1.20;;
16669;SDS011;8448;52.034;5.158;2022-09-02T01:40:07;1.23;;;1.00;;
16669;SDS011;8448;52.034;5.158;2022-09-02T01:42:37;3.05;;;1.27;;
16669;SDS011;8448;52.034;5.158;2022-09-02T01:45:05;2.22;;;1.27;;
16669;SDS011;8448;52.034;5.158;2022-09-02T01:47:34;1.58;;;1.10;;
16669;SDS011;8448;52.034;5.158;2022-09-02T01:50:03;2.45;;;1.20;;
16669;SDS011;8448;52.034;5.158;2022-09-02T01:52:31;3.38;;;1.30;;
16669;SDS011;8448;52.034;5.158;2022-09-02T01:54:59;1.73;;;1.23;;
16669;SDS011;8448;52.034;5.158;2022-09-02T01:57:28;1.75;;;1.10;;
16669;SDS011;8448;52.034;5.158;2022-09-02T01:59:55;1.50;;;1.40;;
16669;SDS011;8448;52.034;5.158;2022-09-02T02:02:24;1.52;;;1.08;;
16669;SDS011;8448;52.034;5.158;2022-09-02T02:04:51;2.33;;;1.20;;
16669;SDS011;8448;52.034;5.158;2022-09-02T02:07:21;4.05;;;1.05;;
16669;SDS011;8448;52.034;5.158;2022-09-02T02:09:49;2.70;;;1.38;;
16669;SDS011;8448;52.034;5.158;2022-09-02T02:12:17;2.33;;;1.40;;
16669;SDS011;8448;52.034;5.158;2022-09-02T02:14:47;2.05;;;1.30;;
16669;SDS011;8448;52.034;5.158;2022-09-02T02:17:15;2.15;;;1.00;;
16669;SDS011;8448;52.034;5.158;2022-09-02T02:19:42;1.20;;;1.10;;
16669;SDS011;8448;52.034;5.158;2022-09-02T02:22:09;4.18;;;1.10;;
16669;SDS011;8448;52.034;5.158;2022-09-02T02:24:38;3.30;;;1.20;;
16669;SDS011;8448;52.034;5.158;2022-09-02T02:27:05;3.08;;;1.40;;
16669;SDS011;8448;52.034;5.158;2022-09-02T02:29:33;5.07;;;1.35;;
16669;SDS011;8448;52.034;5.158;2022-09-02T02:32:02;1.80;;;1.35;;
16669;SDS011;8448;52.034;5.158;2022-09-02T02:34:31;1.23;;;1.00;;
16669;SDS011;8448;52.034;5.158;2022-09-02T02:36:59;1.20;;;1.10;;
16669;SDS011;8448;52.034;5.158;2022-09-02T02:39:26;1.70;;;1.25;;
16669;SDS011;8448;52.034;5.158;2022-09-02T02:41:53;1.50;;;1.10;;
16669;SDS011;8448;52.034;5.158;2022-09-02T02:44:21;2.25;;;1.30;;
16669;SDS011;8448;52.034;5.158;2022-09-02T02:46:49;1.80;;;1.20;;
16669;SDS011;8448;52.034;5.158;2022-09-02T02:49:17;1.50;;;1.30;;
16669;SDS011;8448;52.034;5.158;2022-09-02T02:51:45;3.08;;;1.50;;
16669;SDS011;8448;52.034;5.158;2022-09-02T02:54:13;2.08;;;1.30;;
16669;SDS011;8448;52.034;5.158;2022-09-02T02:56:41;2.45;;;1.40;;
16669;SDS011;8448;52.034;5.158;2022-09-02T02:59:08;1.80;;;1.45;;
16669;SDS011;8448;52.034;5.158;2022-09-02T03:01:39;1.80;;;1.35;;
16669;SDS011;8448;52.034;5.158;2022-09-02T03:04:06;4.07;;;1.25;;
16669;SDS011;8448;52.034;5.158;2022-09-02T03:06:35;1.95;;;1.40;;
16669;SDS011;8448;52.034;5.158;2022-09-02T03:09:03;1.60;;;1.10;;
16669;SDS011;8448;52.034;5.158;2022-09-02T03:11:32;2.20;;;1.20;;
16669;SDS011;8448;52.034;5.158;2022-09-02T03:13:59;3.00;;;1.30;;
16669;SDS011;8448;52.034;5.158;2022-09-02T03:16:27;1.25;;;1.10;;
16669;SDS011;8448;52.034;5.158;2022-09-02T03:21:32;8.23;;;1.33;;
16669;SDS011;8448;52.034;5.158;2022-09-02T03:24:01;1.92;;;1.20;;
16669;SDS011;8448;52.034;5.158;2022-09-02T03:26:28;2.15;;;1.30;;
16669;SDS011;8448;52.034;5.158;2022-09-02T03:28:56;2.85;;;1.27;;
16669;SDS011;8448;52.034;5.158;2022-09-02T03:31:24;2.13;;;1.40;;
16669;SDS011;8448;52.034;5.158;2022-09-02T03:33:53;2.05;;;1.40;;
16669;SDS011;8448;52.034;5.158;2022-09-02T03:36:23;3.22;;;1.40;;
16669;SDS011;8448;52.034;5.158;2022-09-02T03:38:52;1.70;;;1.42;;
16669;SDS011;8448;52.034;5.158;2022-09-02T03:41:21;2.67;;;1.30;;
16669;SDS011;8448;52.034;5.158;2022-09-02T03:43:50;3.65;;;1.58;;
16669;SDS011;8448;52.034;5.158;2022-09-02T03:46:19;2.05;;;1.67;;
16669;SDS011;8448;52.034;5.158;2022-09-02T03:48:47;3.95;;;1.55;;
16669;SDS011;8448;52.034;5.158;2022-09-02T03:51:16;2.78;;;1.48;;
16669;SDS011;8448;52.034;5.158;2022-09-02T03:53:45;2.33;;;1.20;;
16669;SDS011;8448;52.034;5.158;2022-09-02T03:56:14;2.05;;;1.30;;
16669;SDS011;8448;52.034;5.158;2022-09-02T03:58:44;2.75;;;1.50;;
16669;SDS011;8448;52.034;5.158;2022-09-02T04:01:14;2.80;;;1.50;;
16669;SDS011;8448;52.034;5.158;2022-09-02T04:03:43;4.18;;;1.42;;
16669;SDS011;8448;52.034;5.158;2022-09-02T04:06:11;1.42;;;1.33;;
16669;SDS011;8448;52.034;5.158;2022-09-02T04:08:42;2.85;;;1.48;;
16669;SDS011;8448;52.034;5.158;2022-09-02T04:11:11;4.13;;;1.40;;
16669;SDS011;8448;52.034;5.158;2022-09-02T04:13:40;4.07;;;1.58;;
16669;SDS011;8448;52.034;5.158;2022-09-02T04:16:12;2.22;;;1.50;;
16669;SDS011;8448;52.034;5.158;2022-09-02T04:18:41;1.83;;;1.45;;
16669;SDS011;8448;52.034;5.158;2022-09-02T04:21:09;2.28;;;1.30;;
16669;SDS011;8448;52.034;5.158;2022-09-02T04:23:37;2.13;;;1.20;;
16669;SDS011;8448;52.034;5.158;2022-09-02T04:26:06;4.18;;;1.40;;
16669;SDS011;8448;52.034;5.158;2022-09-02T04:28:35;2.45;;;1.50;;
16669;SDS011;8448;52.034;5.158;2022-09-02T04:31:04;3.58;;;1.30;;
16669;SDS011;8448;52.034;5.158;2022-09-02T04:33:32;3.92;;;1.30;;
16669;SDS011;8448;52.034;5.158;2022-09-02T04:36:02;1.90;;;1.40;;
16669;SDS011;8448;52.034;5.158;2022-09-02T04:38:31;3.25;;;1.50;;
16669;SDS011;8448;52.034;5.158;2022-09-02T04:40:59;3.70;;;1.45;;
16669;SDS011;8448;52.034;5.158;2022-09-02T04:43:30;2.80;;;1.40;;
16669;SDS011;8448;52.034;5.158;2022-09-02T04:45:58;4.50;;;1.55;;
16669;SDS011;8448;52.034;5.158;2022-09-02T04:48:28;2.13;;;1.30;;
16669;SDS011;8448;52.034;5.158;2022-09-02T04:50:56;3.42;;;1.27;;
16669;SDS011;8448;52.034;5.158;2022-09-02T04:53:28;4.40;;;1.45;;
16669;SDS011;8448;52.034;5.158;2022-09-02T04:55:56;1.92;;;1.40;;
16669;SDS011;8448;52.034;5.158;2022-09-02T04:58:24;3.15;;;1.50;;
16669;SDS011;8448;52.034;5.158;2022-09-02T05:00:51;2.78;;;1.40;;
16669;SDS011;8448;52.034;5.158;2022-09-02T05:03:21;2.92;;;1.25;;
16669;SDS011;8448;52.034;5.158;2022-09-02T05:05:58;2.83;;;1.40;;
16669;SDS011;8448;52.034;5.158;2022-09-02T05:08:26;2.00;;;1.40;;
16669;SDS011;8448;52.034;5.158;2022-09-02T05:10:54;10.02;;;1.80;;
16669;SDS011;8448;52.034;5.158;2022-09-02T05:13:22;2.67;;;1.48;;
16669;SDS011;8448;52.034;5.158;2022-09-02T05:15:51;1.75;;;1.25;;
16669;SDS011;8448;52.034;5.158;2022-09-02T05:18:19;3.28;;;1.50;;
16669;SDS011;8448;52.034;5.158;2022-09-02T05:20:46;1.40;;;1.15;;
16669;SDS011;8448;52.034;5.158;2022-09-02T05:23:17;2.08;;;1.52;;
16669;SDS011;8448;52.034;5.158;2022-09-02T05:25:45;4.15;;;1.45;;
16669;SDS011;8448;52.034;5.158;2022-09-02T05:28:13;1.77;;;1.30;;
16669;SDS011;8448;52.034;5.158;2022-09-02T05:30:41;2.58;;;1.50;;
16669;SDS011;8448;52.034;5.158;2022-09-02T05:33:10;2.42;;;1.30;;
16669;SDS011;8448;52.034;5.158;2022-09-02T05:35:38;3.63;;;1.50;;
16669;SDS011;8448;52.034;5.158;2022-09-02T05:38:07;2.47;;;1.42;;
16669;SDS011;8448;52.034;5.158;2022-09-02T05:40:36;2.38;;;1.40;;
16669;SDS011;8448;52.034;5.158;2022-09-02T05:43:07;3.47;;;1.27;;
16669;SDS011;8448;52.034;5.158;2022-09-02T05:45:36;6.70;;;1.20;;
16669;SDS011;8448;52.034;5.158;2022-09-02T05:48:05;2.33;;;1.40;;
16669;SDS011;8448;52.034;5.158;2022-09-02T05:50:54;2.97;;;1.40;;
16669;SDS011;8448;52.034;5.158;2022-09-02T05:53:22;1.52;;;1.42;;
16669;SDS011;8448;52.034;5.158;2022-09-02T05:55:52;2.33;;;1.45;;
16669;SDS011;8448;52.034;5.158;2022-09-02T05:58:21;3.88;;;1.23;;
16669;SDS011;8448;52.034;5.158;2022-09-02T06:00:50;1.98;;;1.38;;
16669;SDS011;8448;52.034;5.158;2022-09-02T06:03:19;1.52;;;1.23;;
16669;SDS011;8448;52.034;5.158;2022-09-02T06:05:54;4.43;;;1.40;;
16669;SDS011;8448;52.034;5.158;2022-09-02T06:08:23;2.72;;;1.48;;
16669;SDS011;8448;52.034;5.158;2022-09-02T06:10:50;2.50;;;1.27;;
16669;SDS011;8448;52.034;5.158;2022-09-02T06:13:22;2.30;;;1.30;;
16669;SDS011;8448;52.034;5.158;2022-09-02T06:15:52;4.93;;;1.50;;
16669;SDS011;8448;52.034;5.158;2022-09-02T06:18:23;3.53;;;1.50;;
16669;SDS011;8448;52.034;5.158;2022-09-02T06:20:50;3.35;;;1.30;;
16669;SDS011;8448;52.034;5.158;2022-09-02T06:23:17;3.55;;;1.55;;
16669;SDS011;8448;52.034;5.158;2022-09-02T06:25:46;3.25;;;1.40;;
16669;SDS011;8448;52.034;5.158;2022-09-02T06:28:15;2.75;;;1.50;;
16669;SDS011;8448;52.034;5.158;2022-09-02T06:30:45;4.60;;;1.45;;
16669;SDS011;8448;52.034;5.158;2022-09-02T06:33:17;4.03;;;1.30;;
16669;SDS011;8448;52.034;5.158;2022-09-02T06:35:45;2.42;;;1.30;;
16669;SDS011;8448;52.034;5.158;2022-09-02T06:38:15;7.00;;;1.75;;
16669;SDS011;8448;52.034;5.158;2022-09-02T06:40:45;3.70;;;1.33;;
16669;SDS011;8448;52.034;5.158;2022-09-02T06:43:15;5.60;;;1.67;;
16669;SDS011;8448;52.034;5.158;2022-09-02T06:45:54;4.82;;;1.55;;
16669;SDS011;8448;52.034;5.158;2022-09-02T06:48:21;3.58;;;1.58;;
16669;SDS011;8448;52.034;5.158;2022-09-02T06:50:49;2.47;;;1.60;;
16669;SDS011;8448;52.034;5.158;2022-09-02T06:53:17;2.75;;;1.40;;
16669;SDS011;8448;52.034;5.158;2022-09-02T06:55:45;3.05;;;1.35;;
16669;SDS011;8448;52.034;5.158;2022-09-02T06:58:13;5.68;;;1.55;;
16669;SDS011;8448;52.034;5.158;2022-09-02T07:00:42;2.47;;;1.50;;
16669;SDS011;8448;52.034;5.158;2022-09-02T07:03:10;4.57;;;1.60;;
16669;SDS011;8448;52.034;5.158;2022-09-02T07:06:03;3.13;;;1.52;;
16669;SDS011;8448;52.034;5.158;2022-09-02T07:08:35;3.20;;;1.60;;
16669;SDS011;8448;52.034;5.158;2022-09-02T07:11:04;5.05;;;1.48;;
16669;SDS011;8448;52.034;5.158;2022-09-02T07:13:35;4.72;;;1.52;;
16669;SDS011;8448;52.034;5.158;2022-09-02T07:16:03;3.90;;;1.73;;
16669;SDS011;8448;52.034;5.158;2022-09-02T07:18:32;4.55;;;1.67;;
16669;SDS011;8448;52.034;5.158;2022-09-02T07:21:00;5.65;;;1.50;;
16669;SDS011;8448;52.034;5.158;2022-09-02T07:23:28;8.60;;;1.58;;
16669;SDS011;8448;52.034;5.158;2022-09-02T07:25:55;4.05;;;1.60;;
16669;SDS011;8448;52.034;5.158;2022-09-02T07:28:23;5.43;;;1.65;;
16669;SDS011;8448;52.034;5.158;2022-09-02T07:30:53;3.75;;;1.90;;
16669;SDS011;8448;52.034;5.158;2022-09-02T07:33:21;4.32;;;1.60;;
16669;SDS011;8448;52.034;5.158;2022-09-02T07:35:49;3.13;;;1.80;;
16669;SDS011;8448;52.034;5.158;2022-09-02T07:38:18;2.08;;;1.48;;
16669;SDS011;8448;52.034;5.158;2022-09-02T07:40:47;3.08;;;1.70;;
16669;SDS011;8448;52.034;5.158;2022-09-02T07:43:15;4.68;;;1.80;;
16669;SDS011;8448;52.034;5.158;2022-09-02T07:45:43;3.10;;;1.50;;
16669;SDS011;8448;52.034;5.158;2022-09-02T07:48:13;4.38;;;1.70;;
16669;SDS011;8448;52.034;5.158;2022-09-02T07:50:40;4.22;;;1.70;;
16669;SDS011;8448;52.034;5.158;2022-09-02T07:53:11;2.85;;;1.92;;
16669;SDS011;8448;52.034;5.158;2022-09-02T07:55:42;6.13;;;1.92;;
16669;SDS011;8448;52.034;5.158;2022-09-02T07:58:10;4.07;;;1.90;;
16669;SDS011;8448;52.034;5.158;2022-09-02T08:00:39;5.03;;;2.03;;
16669;SDS011;8448;52.034;5.158;2022-09-02T08:03:08;2.95;;;1.80;;
16669;SDS011;8448;52.034;5.158;2022-09-02T08:05:43;5.45;;;1.92;;
16669;SDS011;8448;52.034;5.158;2022-09-02T08:08:11;5.25;;;2.10;;
16669;SDS011;8448;52.034;5.158;2022-09-02T08:10:39;7.03;;;2.00;;
16669;SDS011;8448;52.034;5.158;2022-09-02T08:13:07;7.10;;;2.10;;
16669;SDS011;8448;52.034;5.158;2022-09-02T08:15:35;6.80;;;1.90;;
16669;SDS011;8448;52.034;5.158;2022-09-02T08:18:03;4.43;;;1.90;;
16669;SDS011;8448;52.034;5.158;2022-09-02T08:20:31;3.83;;;2.05;;
16669;SDS011;8448;52.034;5.158;2022-09-02T08:23:00;3.55;;;1.90;;
16669;SDS011;8448;52.034;5.158;2022-09-02T08:25:29;5.72;;;2.10;;
16669;SDS011;8448;52.034;5.158;2022-09-02T08:27:56;4.65;;;1.85;;
16669;SDS011;8448;52.034;5.158;2022-09-02T08:30:24;4.25;;;1.85;;
16669;SDS011;8448;52.034;5.158;2022-09-02T08:32:51;5.88;;;2.40;;
16669;SDS011;8448;52.034;5.158;2022-09-02T08:35:19;3.08;;;2.00;;
16669;SDS011;8448;52.034;5.158;2022-09-02T08:37:46;3.88;;;2.20;;
16669;SDS011;8448;52.034;5.158;2022-09-02T08:40:16;5.38;;;2.30;;
16669;SDS011;8448;52.034;5.158;2022-09-02T08:42:45;5.30;;;2.20;;
16669;SDS011;8448;52.034;5.158;2022-09-02T08:45:17;4.97;;;2.53;;
16669;SDS011;8448;52.034;5.158;2022-09-02T08:47:48;6.05;;;2.30;;
16669;SDS011;8448;52.034;5.158;2022-09-02T08:50:19;4.70;;;2.08;;
16669;SDS011;8448;52.034;5.158;2022-09-02T08:52:47;3.10;;;2.30;;
16669;SDS011;8448;52.034;5.158;2022-09-02T08:55:22;5.10;;;2.20;;
16669;SDS011;8448;52.034;5.158;2022-09-02T08:57:53;4.28;;;2.15;;
16669;SDS011;8448;52.034;5.158;2022-09-02T09:00:21;5.80;;;2.15;;
16669;SDS011;8448;52.034;5.158;2022-09-02T09:02:52;3.38;;;2.28;;
16669;SDS011;8448;52.034;5.158;2022-09-02T09:05:24;4.07;;;2.30;;
16669;SDS011;8448;52.034;5.158;2022-09-02T09:08:02;4.68;;;2.10;;
16669;SDS011;8448;52.034;5.158;2022-09-02T09:10:37;5.20;;;2.47;;
16669;SDS011;8448;52.034;5.158;2022-09-02T09:13:18;9.38;;;2.63;;
16669;SDS011;8448;52.034;5.158;2022-09-02T09:15:51;5.70;;;2.30;;
16669;SDS011;8448;52.034;5.158;2022-09-02T09:18:23;5.72;;;2.63;;
16669;SDS011;8448;52.034;5.158;2022-09-02T09:20:54;6.07;;;2.60;;
16669;SDS011;8448;52.034;5.158;2022-09-02T09:23:24;7.13;;;2.67;;
16669;SDS011;8448;52.034;5.158;2022-09-02T09:25:58;4.13;;;2.30;;
16669;SDS011;8448;52.034;5.158;2022-09-02T09:28:31;4.50;;;2.90;;
16669;SDS011;8448;52.034;5.158;2022-09-02T09:31:07;6.45;;;2.72;;
16669;SDS011;8448;52.034;5.158;2022-09-02T09:33:36;3.17;;;2.40;;
16669;SDS011;8448;52.034;5.158;2022-09-02T09:36:03;8.27;;;2.80;;
16669;SDS011;8448;52.034;5.158;2022-09-02T09:38:31;8.10;;;2.90;;
16669;SDS011;8448;52.034;5.158;2022-09-02T09:41:11;4.88;;;2.80;;
16669;SDS011;8448;52.034;5.158;2022-09-02T09:43:40;5.85;;;2.90;;
16669;SDS011;8448;52.034;5.158;2022-09-02T09:46:18;4.70;;;2.47;;
16669;SDS011;8448;52.034;5.158;2022-09-02T09:48:49;4.93;;;2.65;;
16669;SDS011;8448;52.034;5.158;2022-09-02T09:51:17;4.32;;;2.72;;
16669;SDS011;8448;52.034;5.158;2022-09-02T09:53:44;5.88;;;3.40;;
16669;SDS011;8448;52.034;5.158;2022-09-02T09:56:32;6.30;;;3.15;;
16669;SDS011;8448;52.034;5.158;2022-09-02T09:59:00;5.13;;;2.83;;
16669;SDS011;8448;52.034;5.158;2022-09-02T10:01:28;5.22;;;2.50;;
16669;SDS011;8448;52.034;5.158;2022-09-02T10:03:57;5.93;;;2.80;;
16669;SDS011;8448;52.034;5.158;2022-09-02T10:06:37;5.03;;;3.05;;
16669;SDS011;8448;52.034;5.158;2022-09-02T10:09:14;6.75;;;2.83;;
16669;SDS011;8448;52.034;5.158;2022-09-02T10:11:57;3.83;;;2.17;;
16669;SDS011;8448;52.034;5.158;2022-09-02T10:14:26;6.43;;;3.53;;
16669;SDS011;8448;52.034;5.158;2022-09-02T10:17:01;5.43;;;2.80;;
16669;SDS011;8448;52.034;5.158;2022-09-02T10:19:38;4.28;;;2.78;;
16669;SDS011;8448;52.034;5.158;2022-09-02T10:22:29;6.10;;;3.10;;
16669;SDS011;8448;52.034;5.158;2022-09-02T10:25:06;4.90;;;3.00;;
16669;SDS011;8448;52.034;5.158;2022-09-02T10:27:45;5.97;;;2.78;;
16669;SDS011;8448;52.034;5.158;2022-09-02T10:30:20;5.72;;;2.70;;
16669;SDS011;8448;52.034;5.158;2022-09-02T10:33:01;3.90;;;2.47;;
16669;SDS011;8448;52.034;5.158;2022-09-02T10:35:36;6.10;;;2.60;;
16669;SDS011;8448;52.034;5.158;2022-09-02T10:38:22;4.63;;;2.72;;
16669;SDS011;8448;52.034;5.158;2022-09-02T10:40:56;4.40;;;2.53;;
16669;SDS011;8448;52.034;5.158;2022-09-02T10:43:40;8.63;;;2.70;;
16669;SDS011;8448;52.034;5.158;2022-09-02T10:46:20;3.95;;;2.40;;
16669;SDS011;8448;52.034;5.158;2022-09-02T10:48:51;5.07;;;3.00;;
16669;SDS011;8448;52.034;5.158;2022-09-02T10:51:26;2.70;;;2.20;;
16669;SDS011;8448;52.034;5.158;2022-09-02T10:54:04;9.13;;;2.45;;
16669;SDS011;8448;52.034;5.158;2022-09-02T10:56:39;3.53;;;2.40;;
16669;SDS011;8448;52.034;5.158;2022-09-02T10:59:13;10.40;;;2.97;;
16669;SDS011;8448;52.034;5.158;2022-09-02T11:01:45;8.82;;;2.75;;
16669;SDS011;8448;52.034;5.158;2022-09-02T11:04:17;5.88;;;2.60;;
16669;SDS011;8448;52.034;5.158;2022-09-02T11:06:47;6.03;;;2.60;;
16669;SDS011;8448;52.034;5.158;2022-09-02T11:09:19;7.32;;;2.70;;
16669;SDS011;8448;52.034;5.158;2022-09-02T11:11:55;6.05;;;2.45;;
16669;SDS011;8448;52.034;5.158;2022-09-02T11:14:28;5.65;;;2.60;;
16669;SDS011;8448;52.034;5.158;2022-09-02T11:16:59;7.93;;;2.50;;
16669;SDS011;8448;52.034;5.158;2022-09-02T11:19:32;4.20;;;2.22;;
16669;SDS011;8448;52.034;5.158;2022-09-02T11:22:02;5.60;;;2.60;;
16669;SDS011;8448;52.034;5.158;2022-09-02T11:24:34;7.18;;;2.60;;
16669;SDS011;8448;52.034;5.158;2022-09-02T11:27:07;4.15;;;2.22;;
16669;SDS011;8448;52.034;5.158;2022-09-02T11:29:43;4.80;;;2.25;;
16669;SDS011;8448;52.034;5.158;2022-09-02T11:32:16;5.35;;;2.72;;
16669;SDS011;8448;52.034;5.158;2022-09-02T11:34:46;4.53;;;2.67;;
16669;SDS011;8448;52.034;5.158;2022-09-02T11:37:23;4.43;;;2.30;;
16669;SDS011;8448;52.034;5.158;2022-09-02T11:39:55;3.67;;;2.30;;
16669;SDS011;8448;52.034;5.158;2022-09-02T11:42:30;2.72;;;2.20;;
16669;SDS011;8448;52.034;5.158;2022-09-02T11:45:16;3.35;;;2.50;;
16669;SDS011;8448;52.034;5.158;2022-09-02T11:48:06;5.07;;;2.22;;
16669;SDS011;8448;52.034;5.158;2022-09-02T11:50:54;5.20;;;2.60;;
16669;SDS011;8448;52.034;5.158;2022-09-02T11:53:34;7.57;;;2.50;;
16669;SDS011;8448;52.034;5.158;2022-09-02T11:56:04;4.28;;;2.47;;
16669;SDS011;8448;52.034;5.158;2022-09-02T11:58:37;4.18;;;2.40;;
16669;SDS011;8448;52.034;5.158;2022-09-02T12:01:17;3.92;;;2.35;;
16669;SDS011;8448;52.034;5.158;2022-09-02T12:03:52;4.05;;;2.67;;
16669;SDS011;8448;52.034;5.158;2022-09-02T12:06:22;3.60;;;2.10;;
16669;SDS011;8448;52.034;5.158;2022-09-02T12:11:45;4.32;;;2.38;;
16669;SDS011;8448;52.034;5.158;2022-09-02T12:29:43;2.83;;;1.90;;
16669;SDS011;8448;52.034;5.158;2022-09-02T12:32:10;2.20;;;2.00;;
16669;SDS011;8448;52.034;5.158;2022-09-02T12:35:05;3.38;;;2.28;;
16669;SDS011;8448;52.034;5.158;2022-09-02T12:37:49;5.82;;;2.42;;
16669;SDS011;8448;52.034;5.158;2022-09-02T12:40:25;3.42;;;2.50;;
16669;SDS011;8448;52.034;5.158;2022-09-02T12:42:58;2.90;;;2.28;;
16669;SDS011;8448;52.034;5.158;2022-09-02T12:45:29;5.43;;;2.20;;
16669;SDS011;8448;52.034;5.158;2022-09-02T12:47:58;4.70;;;2.40;;
16669;SDS011;8448;52.034;5.158;2022-09-02T12:50:27;3.15;;;2.20;;
16669;SDS011;8448;52.034;5.158;2022-09-02T12:53:10;2.92;;;2.15;;
16669;SDS011;8448;52.034;5.158;2022-09-02T12:55:51;2.45;;;2.00;;
16669;SDS011;8448;52.034;5.158;2022-09-02T12:58:19;2.47;;;2.17;;
16669;SDS011;8448;52.034;5.158;2022-09-02T13:00:53;4.22;;;2.53;;
16669;SDS011;8448;52.034;5.158;2022-09-02T13:03:30;3.45;;;2.40;;
16669;SDS011;8448;52.034;5.158;2022-09-02T13:06:16;6.25;;;2.20;;
16669;SDS011;8448;52.034;5.158;2022-09-02T13:09:01;13.10;;;2.55;;
16669;SDS011;8448;52.034;5.158;2022-09-02T13:12:11;4.00;;;2.47;;
16669;SDS011;8448;52.034;5.158;2022-09-02T13:14:57;7.05;;;2.60;;
16669;SDS011;8448;52.034;5.158;2022-09-02T13:17:34;3.33;;;2.33;;
16669;SDS011;8448;52.034;5.158;2022-09-02T13:23:17;5.93;;;2.38;;
16669;SDS011;8448;52.034;5.158;2022-09-02T13:26:06;4.25;;;2.20;;
16669;SDS011;8448;52.034;5.158;2022-09-02T13:31:35;4.50;;;2.20;;
16669;SDS011;8448;52.034;5.158;2022-09-02T13:34:03;3.15;;;2.38;;
16669;SDS011;8448;52.034;5.158;2022-09-02T13:36:34;5.10;;;2.40;;
16669;SDS011;8448;52.034;5.158;2022-09-02T13:39:09;3.22;;;2.28;;
16669;SDS011;8448;52.034;5.158;2022-09-02T13:41:42;4.30;;;2.50;;
16669;SDS011;8448;52.034;5.158;2022-09-02T13:44:09;7.97;;;2.40;;
16669;SDS011;8448;52.034;5.158;2022-09-02T13:46:45;5.78;;;2.45;;
16669;SDS011;8448;52.034;5.158;2022-09-02T13:49:17;6.25;;;2.60;;
16669;SDS011;8448;52.034;5.158;2022-09-02T13:51:48;5.50;;;2.40;;
16669;SDS011;8448;52.034;5.158;2022-09-02T13:54:27;4.70;;;2.55;;
16669;SDS011;8448;52.034;5.158;2022-09-02T13:57:00;3.95;;;2.35;;
16669;SDS011;8448;52.034;5.158;2022-09-02T13:59:35;5.80;;;2.60;;
16669;SDS011;8448;52.034;5.158;2022-09-02T14:02:17;5.82;;;2.40;;
16669;SDS011;8448;52.034;5.158;2022-09-02T14:04:48;3.88;;;2.50;;
16669;SDS011;8448;52.034;5.158;2022-09-02T14:07:17;6.00;;;2.72;;
16669;SDS011;8448;52.034;5.158;2022-09-02T14:09:49;4.28;;;2.55;;
16669;SDS011;8448;52.034;5.158;2022-09-02T14:12:18;6.13;;;2.40;;
16669;SDS011;8448;52.034;5.158;2022-09-02T14:14:46;3.10;;;2.42;;
16669;SDS011;8448;52.034;5.158;2022-09-02T14:17:17;3.60;;;2.17;;
16669;SDS011;8448;52.034;5.158;2022-09-02T14:19:46;4.20;;;2.30;;
16669;SDS011;8448;52.034;5.158;2022-09-02T14:22:22;2.53;;;2.33;;
16669;SDS011;8448;52.034;5.158;2022-09-02T14:24:54;5.95;;;2.70;;
16669;SDS011;8448;52.034;5.158;2022-09-02T14:27:23;3.13;;;2.50;;
16669;SDS011;8448;52.034;5.158;2022-09-02T14:29:53;5.00;;;2.70;;
16669;SDS011;8448;52.034;5.158;2022-09-02T14:32:23;5.65;;;2.80;;
16669;SDS011;8448;52.034;5.158;2022-09-02T14:35:08;3.58;;;2.60;;
16669;SDS011;8448;52.034;5.158;2022-09-02T14:37:49;4.80;;;2.47;;
16669;SDS011;8448;52.034;5.158;2022-09-02T14:40:17;3.17;;;2.40;;
16669;SDS011;8448;52.034;5.158;2022-09-02T14:42:59;3.65;;;2.60;;
16669;SDS011;8448;52.034;5.158;2022-09-02T14:45:31;3.10;;;2.30;;
16669;SDS011;8448;52.034;5.158;2022-09-02T14:48:00;5.70;;;2.50;;
16669;SDS011;8448;52.034;5.158;2022-09-02T14:50:36;6.18;;;2.53;;
16669;SDS011;8448;52.034;5.158;2022-09-02T14:53:06;3.80;;;2.20;;
16669;SDS011;8448;52.034;5.158;2022-09-02T14:55:42;4.22;;;2.47;;
16669;SDS011;8448;52.034;5.158;2022-09-02T14:58:18;7.10;;;2.47;;
16669;SDS011;8448;52.034;5.158;2022-09-02T15:00:47;4.90;;;2.25;;
16669;SDS011;8448;52.034;5.158;2022-09-02T15:03:18;2.95;;;2.50;;
16669;SDS011;8448;52.034;5.158;2022-09-02T15:05:46;5.38;;;2.40;;
16669;SDS011;8448;52.034;5.158;2022-09-02T15:08:14;6.72;;;2.42;;
16669;SDS011;8448;52.034;5.158;2022-09-02T15:10:42;4.72;;;2.10;;
16669;SDS011;8448;52.034;5.158;2022-09-02T15:13:11;5.20;;;2.22;;
16669;SDS011;8448;52.034;5.158;2022-09-02T15:15:41;2.33;;;2.13;;
16669;SDS011;8448;52.034;5.158;2022-09-02T15:18:08;3.17;;;2.30;;
16669;SDS011;8448;52.034;5.158;2022-09-02T15:20:36;5.28;;;2.17;;
16669;SDS011;8448;52.034;5.158;2022-09-02T15:23:03;4.60;;;2.15;;
16669;SDS011;8448;52.034;5.158;2022-09-02T15:25:30;2.80;;;2.30;;
16669;SDS011;8448;52.034;5.158;2022-09-02T15:27:58;3.20;;;2.28;;
16669;SDS011;8448;52.034;5.158;2022-09-02T15:30:25;2.45;;;2.25;;
16669;SDS011;8448;52.034;5.158;2022-09-02T15:32:54;3.42;;;2.50;;
16669;SDS011;8448;52.034;5.158;2022-09-02T15:35:21;4.28;;;2.30;;
16669;SDS011;8448;52.034;5.158;2022-09-02T15:37:49;3.35;;;2.42;;
16669;SDS011;8448;52.034;5.158;2022-09-02T15:40:16;2.80;;;2.10;;
16669;SDS011;8448;52.034;5.158;2022-09-02T15:42:43;5.20;;;2.30;;
16669;SDS011;8448;52.034;5.158;2022-09-02T15:45:10;2.83;;;2.15;;
16669;SDS011;8448;52.034;5.158;2022-09-02T15:47:39;2.88;;;2.40;;
16669;SDS011;8448;52.034;5.158;2022-09-02T15:50:08;3.58;;;2.33;;